sensor_id;sensor_type;location;lat;lon;timestamp;pressure;altitude;pressure_sealevel;temperature;humidity
51759;BME280;66684;47.568;18.734;2023-06-14T00:00:58;99210.47;;;12.02;100.00
51759;BME280;66684;47.568;18.734;2023-06-14T00:03:24;99205.44;;;12.08;100.00
51759;BME280;66684;47.568;18.734;2023-06-14T00:05:51;99199.56;;;12.14;100.00
51759;BME280;66684;47.568;18.734;2023-06-14T00:08:17;99200.28;;;12.08;100.00
51759;BME280;66684;47.568;18.734;2023-06-14T00:10:44;99199.47;;;12.11;100.00
51759;BME280;66684;47.568;18.734;2023-06-14T00:13:10;99201.16;;;12.09;100.00
51759;BME280;66684;47.568;18.734;2023-06-14T00:15:36;99199.56;;;11.84;100.00
51759;BME280;66684;47.568;18.734;2023-06-14T00:18:03;99197.66;;;11.78;100.00
51759;BME280;66684;47.568;18.734;2023-06-14T00:20:31;99201.25;;;11.55;100.00
51759;BME280;66684;47.568;18.734;2023-06-14T00:22:59;99206.72;;;11.64;100.00
51759;BME280;66684;47.568;18.734;2023-06-14T00:25:25;99209.69;;;11.76;100.00
51759;BME280;66684;47.568;18.734;2023-06-14T00:27:52;99211.47;;;11.79;100.00
51759;BME280;66684;47.568;18.734;2023-06-14T00:30:18;99207.97;;;11.77;100.00
51759;BME280;66684;47.568;18.734;2023-06-14T00:32:44;99207.47;;;11.88;100.00
51759;BME280;66684;47.568;18.734;2023-06-14T00:35:11;99207.97;;;11.77;100.00
51759;BME280;66684;47.568;18.734;2023-06-14T00:37:37;99208.00;;;11.78;100.00
51759;BME280;66684;47.568;18.734;2023-06-14T00:40:04;99209.31;;;11.93;100.00
51759;BME280;66684;47.568;18.734;2023-06-14T00:42:31;99205.16;;;11.99;100.00
51759;BME280;66684;47.568;18.734;2023-06-14T00:44:57;99206.03;;;12.00;100.00
51759;BME280;66684;47.568;18.734;2023-06-14T00:47:23;99210.69;;;11.81;100.00
51759;BME280;66684;47.568;18.734;2023-06-14T00:49:50;99211.38;;;11.76;100.00
51759;BME280;66684;47.568;18.734;2023-06-14T00:52:17;99210.41;;;11.72;100.00
51759;BME280;66684;47.568;18.734;2023-06-14T00:54:43;99211.47;;;11.79;100.00
51759;BME280;66684;47.568;18.734;2023-06-14T00:57:10;99214.00;;;11.77;100.00
51759;BME280;66684;47.568;18.734;2023-06-14T00:59:42;99214.78;;;11.75;100.00
51759;BME280;66684;47.568;18.734;2023-06-14T01:02:08;99220.09;;;11.79;100.00
51759;BME280;66684;47.568;18.734;2023-06-14T01:04:34;99218.38;;;11.80;100.00
51759;BME280;66684;47.568;18.734;2023-06-14T01:07:18;99215.00;;;11.81;100.00
51759;BME280;66684;47.568;18.734;2023-06-14T01:10:21;99212.56;;;11.85;100.00
51759;BME280;66684;47.568;18.734;2023-06-14T01:15:26;99211.25;;;11.71;100.00
51759;BME280;66684;47.568;18.734;2023-06-14T01:17:53;99204.16;;;11.66;100.00
51759;BME280;66684;47.568;18.734;2023-06-14T01:20:28;99203.94;;;11.58;100.00
51759;BME280;66684;47.568;18.734;2023-06-14T01:22:55;99206.97;;;11.16;100.00
51759;BME280;66684;47.568;18.734;2023-06-14T01:25:21;99202.09;;;11.25;100.00
51759;BME280;66684;47.568;18.734;2023-06-14T01:27:49;99200.50;;;11.30;100.00
51759;BME280;66684;47.568;18.734;2023-06-14T01:30:17;99198.88;;;11.32;100.00
51759;BME280;66684;47.568;18.734;2023-06-14T01:32:43;99196.13;;;11.28;100.00
51759;BME280;66684;47.568;18.734;2023-06-14T01:35:10;99200.22;;;11.21;100.00
51759;BME280;66684;47.568;18.734;2023-06-14T01:37:36;99204.28;;;11.13;100.00
51759;BME280;66684;47.568;18.734;2023-06-14T01:40:04;99211.06;;;11.10;100.00
51759;BME280;66684;47.568;18.734;2023-06-14T01:42:33;99200.69;;;11.08;100.00
51759;BME280;66684;47.568;18.734;2023-06-14T01:45:03;99205.81;;;11.06;100.00
51759;BME280;66684;47.568;18.734;2023-06-14T01:47:30;99209.75;;;10.95;100.00
51759;BME280;66684;47.568;18.734;2023-06-14T01:49:56;99215.59;;;10.90;100.00
51759;BME280;66684;47.568;18.734;2023-06-14T01:52:22;99208.22;;;11.02;100.00
51759;BME280;66684;47.568;18.734;2023-06-14T01:54:50;99213.69;;;10.84;100.00
51759;BME280;66684;47.568;18.734;2023-06-14T01:57:16;99211.25;;;10.89;100.00
51759;BME280;66684;47.568;18.734;2023-06-14T01:59:42;99202.00;;;10.95;100.00
51759;BME280;66684;47.568;18.734;2023-06-14T02:02:08;99209.69;;;10.94;100.00
51759;BME280;66684;47.568;18.734;2023-06-14T02:04:34;99212.81;;;10.84;100.00
51759;BME280;66684;47.568;18.734;2023-06-14T02:07:00;99214.97;;;10.71;100.00
51759;BME280;66684;47.568;18.734;2023-06-14T02:09:27;99214.06;;;10.69;100.00
51759;BME280;66684;47.568;18.734;2023-06-14T02:11:52;99216.97;;;10.80;100.00
51759;BME280;66684;47.568;18.734;2023-06-14T02:14:18;99223.97;;;10.57;100.00
51759;BME280;66684;47.568;18.734;2023-06-14T02:16:44;99215.69;;;10.67;100.00
51759;BME280;66684;47.568;18.734;2023-06-14T02:19:18;99228.09;;;10.77;100.00
51759;BME280;66684;47.568;18.734;2023-06-14T02:21:45;99216.06;;;10.78;100.00
51759;BME280;66684;47.568;18.734;2023-06-14T02:24:11;99219.69;;;10.83;100.00
51759;BME280;66684;47.568;18.734;2023-06-14T02:26:37;99219.44;;;10.75;100.00
51759;BME280;66684;47.568;18.734;2023-06-14T02:29:09;99217.44;;;10.68;100.00
51759;BME280;66684;47.568;18.734;2023-06-14T02:31:36;99227.56;;;10.62;100.00
51759;BME280;66684;47.568;18.734;2023-06-14T02:34:02;99222.31;;;10.59;100.00
51759;BME280;66684;47.568;18.734;2023-06-14T02:36:28;99219.62;;;10.56;100.00
51759;BME280;66684;47.568;18.734;2023-06-14T02:38:56;99224.06;;;10.60;100.00
51759;BME280;66684;47.568;18.734;2023-06-14T02:41:26;99219.97;;;10.67;100.00
51759;BME280;66684;47.568;18.734;2023-06-14T02:43:53;99214.56;;;10.59;100.00
51759;BME280;66684;47.568;18.734;2023-06-14T02:46:19;99219.97;;;10.67;100.00
51759;BME280;66684;47.568;18.734;2023-06-14T02:48:45;99217.44;;;10.68;100.00
51759;BME280;66684;47.568;18.734;2023-06-14T02:51:11;99212.97;;;10.63;100.00
51759;BME280;66684;47.568;18.734;2023-06-14T02:53:38;99213.75;;;10.36;100.00
51759;BME280;66684;47.568;18.734;2023-06-14T02:56:04;99221.78;;;10.20;100.00
51759;BME280;66684;47.568;18.734;2023-06-14T02:58:30;99212.25;;;10.43;100.00
51759;BME280;66684;47.568;18.734;2023-06-14T03:00:56;99216.25;;;10.33;100.00
51759;BME280;66684;47.568;18.734;2023-06-14T03:03:22;99219.00;;;10.38;100.00
51759;BME280;66684;47.568;18.734;2023-06-14T03:05:50;99215.37;;;10.58;100.00
51759;BME280;66684;47.568;18.734;2023-06-14T03:08:17;99214.94;;;10.70;100.00
51759;BME280;66684;47.568;18.734;2023-06-14T03:10:48;99220.97;;;10.70;100.00
51759;BME280;66684;47.568;18.734;2023-06-14T03:13:15;99220.78;;;10.64;100.00
51759;BME280;66684;47.568;18.734;2023-06-14T03:15:46;99224.41;;;10.69;100.00
51759;BME280;66684;47.568;18.734;2023-06-14T03:18:13;99233.16;;;10.74;100.00
51759;BME280;66684;47.568;18.734;2023-06-14T03:20:40;99222.25;;;10.83;100.00
51759;BME280;66684;47.568;18.734;2023-06-14T03:23:06;99224.84;;;10.83;100.00
51759;BME280;66684;47.568;18.734;2023-06-14T03:25:32;99218.88;;;10.86;100.00
51759;BME280;66684;47.568;18.734;2023-06-14T03:28:04;99223.66;;;10.73;100.00
51759;BME280;66684;47.568;18.734;2023-06-14T03:30:31;99228.41;;;10.87;100.00
51759;BME280;66684;47.568;18.734;2023-06-14T03:32:57;99225.50;;;11.03;100.00
51759;BME280;66684;47.568;18.734;2023-06-14T03:35:23;99226.56;;;10.83;100.00
51759;BME280;66684;47.568;18.734;2023-06-14T03:37:49;99227.31;;;10.80;100.00
51759;BME280;66684;47.568;18.734;2023-06-14T03:40:17;99224.63;;;11.02;100.00
51759;BME280;66684;47.568;18.734;2023-06-14T03:42:43;99225.97;;;11.18;100.00
51759;BME280;66684;47.568;18.734;2023-06-14T03:45:09;99231.53;;;11.30;100.00
51759;BME280;66684;47.568;18.734;2023-06-14T03:47:35;99232.22;;;11.52;100.00
51759;BME280;66684;47.568;18.734;2023-06-14T03:50:04;99238.81;;;11.69;100.00
51759;BME280;66684;47.568;18.734;2023-06-14T03:52:31;99233.88;;;11.78;100.00
51759;BME280;66684;47.568;18.734;2023-06-14T03:54:58;99240.78;;;11.78;100.00
51759;BME280;66684;47.568;18.734;2023-06-14T03:57:26;99239.81;;;12.03;100.00
51759;BME280;66684;47.568;18.734;2023-06-14T03:59:52;99239.50;;;12.22;100.00
51759;BME280;66684;47.568;18.734;2023-06-14T04:02:18;99242.44;;;12.34;100.00
51759;BME280;66684;47.568;18.734;2023-06-14T04:04:45;99243.12;;;12.29;100.00
51759;BME280;66684;47.568;18.734;2023-06-14T04:07:12;99249.62;;;12.45;100.00
51759;BME280;66684;47.568;18.734;2023-06-14T04:09:39;99254.47;;;12.64;100.00
51759;BME280;66684;47.568;18.734;2023-06-14T04:12:05;99251.12;;;12.69;100.00
51759;BME280;66684;47.568;18.734;2023-06-14T04:14:31;99249.62;;;12.76;100.00
51759;BME280;66684;47.568;18.734;2023-06-14T04:17:00;99256.00;;;12.89;100.00
51759;BME280;66684;47.568;18.734;2023-06-14T04:19:26;99258.00;;;13.01;100.00
51759;BME280;66684;47.568;18.734;2023-06-14T04:21:52;99262.44;;;13.05;100.00
51759;BME280;66684;47.568;18.734;2023-06-14T04:24:18;99252.28;;;13.14;100.00
51759;BME280;66684;47.568;18.734;2023-06-14T04:26:45;99252.34;;;13.17;100.00
51759;BME280;66684;47.568;18.734;2023-06-14T04:29:16;99256.97;;;13.27;100.00
51759;BME280;66684;47.568;18.734;2023-06-14T04:31:43;99258.78;;;13.31;100.00
51759;BME280;66684;47.568;18.734;2023-06-14T04:34:10;99272.00;;;13.40;100.00
51759;BME280;66684;47.568;18.734;2023-06-14T04:36:42;99272.34;;;13.56;100.00
51759;BME280;66684;47.568;18.734;2023-06-14T04:39:15;99274.19;;;13.61;100.00
51759;BME280;66684;47.568;18.734;2023-06-14T04:41:43;99281.25;;;13.67;100.00
51759;BME280;66684;47.568;18.734;2023-06-14T04:44:10;99276.87;;;13.64;100.00
51759;BME280;66684;47.568;18.734;2023-06-14T04:46:36;99277.19;;;13.78;100.00
51759;BME280;66684;47.568;18.734;2023-06-14T04:49:13;99282.31;;;13.75;100.00
51759;BME280;66684;47.568;18.734;2023-06-14T04:51:41;99281.69;;;13.85;100.00
51759;BME280;66684;47.568;18.734;2023-06-14T04:54:11;99275.06;;;14.01;100.00
51759;BME280;66684;47.568;18.734;2023-06-14T04:56:41;99277.00;;;14.10;100.00
51759;BME280;66684;47.568;18.734;2023-06-14T04:59:08;99277.16;;;14.16;100.00
51759;BME280;66684;47.568;18.734;2023-06-14T05:01:34;99278.03;;;14.16;100.00
51759;BME280;66684;47.568;18.734;2023-06-14T05:04:01;99281.50;;;14.17;100.00
51759;BME280;66684;47.568;18.734;2023-06-14T05:06:27;99280.78;;;14.25;100.00
51759;BME280;66684;47.568;18.734;2023-06-14T05:08:56;99281.88;;;14.35;100.00
51759;BME280;66684;47.568;18.734;2023-06-14T05:11:22;99282.72;;;14.34;100.00
51759;BME280;66684;47.568;18.734;2023-06-14T05:13:50;99274.94;;;14.34;100.00
51759;BME280;66684;47.568;18.734;2023-06-14T05:16:17;99273.66;;;14.56;100.00
51759;BME280;66684;47.568;18.734;2023-06-14T05:18:45;99274.75;;;14.69;100.00
51759;BME280;66684;47.568;18.734;2023-06-14T05:21:13;99277.25;;;14.64;100.00
51759;BME280;66684;47.568;18.734;2023-06-14T05:23:41;99279.91;;;14.66;100.00
51759;BME280;66684;47.568;18.734;2023-06-14T05:26:07;99281.66;;;14.67;100.00
51759;BME280;66684;47.568;18.734;2023-06-14T05:28:33;99280.88;;;14.71;100.00
51759;BME280;66684;47.568;18.734;2023-06-14T05:30:59;99285.59;;;14.93;100.00
51759;BME280;66684;47.568;18.734;2023-06-14T05:33:25;99289.22;;;15.01;100.00
51759;BME280;66684;47.568;18.734;2023-06-14T05:35:51;99288.62;;;15.16;100.00
51759;BME280;66684;47.568;18.734;2023-06-14T05:38:17;99292.09;;;15.15;100.00
51759;BME280;66684;47.568;18.734;2023-06-14T05:40:43;99290.38;;;15.19;100.00
51759;BME280;66684;47.568;18.734;2023-06-14T05:43:09;99289.81;;;15.35;100.00
51759;BME280;66684;47.568;18.734;2023-06-14T05:45:36;99278.97;;;15.62;100.00
51759;BME280;66684;47.568;18.734;2023-06-14T05:48:02;99292.94;;;15.67;100.00
51759;BME280;66684;47.568;18.734;2023-06-14T05:50:27;99285.41;;;15.87;100.00
51759;BME280;66684;47.568;18.734;2023-06-14T05:52:53;99289.75;;;15.86;100.00
51759;BME280;66684;47.568;18.734;2023-06-14T05:55:19;99285.41;;;15.87;100.00
51759;BME280;66684;47.568;18.734;2023-06-14T05:57:45;99285.22;;;15.75;100.00
51759;BME280;66684;47.568;18.734;2023-06-14T06:00:12;99293.06;;;15.75;100.00
51759;BME280;66684;47.568;18.734;2023-06-14T06:02:40;99293.94;;;15.77;100.00
51759;BME280;66684;47.568;18.734;2023-06-14T06:05:08;99294.69;;;15.68;100.00
51759;BME280;66684;47.568;18.734;2023-06-14T06:07:34;99294.03;;;15.83;100.00
51759;BME280;66684;47.568;18.734;2023-06-14T06:10:00;99298.94;;;16.24;100.00
51759;BME280;66684;47.568;18.734;2023-06-14T06:12:26;99294.78;;;16.38;100.00
51759;BME280;66684;47.568;18.734;2023-06-14T06:14:52;99301.78;;;16.42;100.00
51759;BME280;66684;47.568;18.734;2023-06-14T06:17:18;99298.41;;;16.51;100.00
51759;BME280;66684;47.568;18.734;2023-06-14T06:19:44;99300.19;;;16.53;100.00
51759;BME280;66684;47.568;18.734;2023-06-14T06:22:10;99311.78;;;16.77;100.00
51759;BME280;66684;47.568;18.734;2023-06-14T06:24:36;99310.97;;;16.84;100.00
51759;BME280;66684;47.568;18.734;2023-06-14T06:27:02;99295.25;;;16.75;100.00
51759;BME280;66684;47.568;18.734;2023-06-14T06:29:28;99309.00;;;16.64;100.00
51759;BME280;66684;47.568;18.734;2023-06-14T06:31:53;99301.66;;;16.33;100.00
51759;BME280;66684;47.568;18.734;2023-06-14T06:34:21;99301.50;;;16.21;100.00
51759;BME280;66684;47.568;18.734;2023-06-14T06:36:47;99305.44;;;16.56;100.00
51759;BME280;66684;47.568;18.734;2023-06-14T06:39:13;99307.28;;;16.66;100.00
51759;BME280;66684;47.568;18.734;2023-06-14T06:41:41;99308.34;;;16.82;100.00
51759;BME280;66684;47.568;18.734;2023-06-14T06:44:07;99303.94;;;16.74;100.00
51759;BME280;66684;47.568;18.734;2023-06-14T06:46:33;99304.81;;;16.76;100.00
51759;BME280;66684;47.568;18.734;2023-06-14T06:49:00;99303.19;;;16.88;98.58
51759;BME280;66684;47.568;18.734;2023-06-14T06:51:26;99311.28;;;17.11;100.00
51759;BME280;66684;47.568;18.734;2023-06-14T06:53:53;99305.25;;;17.17;98.26
51759;BME280;66684;47.568;18.734;2023-06-14T06:56:20;99309.47;;;17.04;94.14
51759;BME280;66684;47.568;18.734;2023-06-14T06:58:49;99308.59;;;17.05;97.32
51759;BME280;66684;47.568;18.734;2023-06-14T07:01:16;99314.59;;;16.95;98.30
51759;BME280;66684;47.568;18.734;2023-06-14T07:03:42;99305.06;;;16.98;97.39
51759;BME280;66684;47.568;18.734;2023-06-14T07:06:08;99307.91;;;17.24;97.58
51759;BME280;66684;47.568;18.734;2023-06-14T07:08:34;99308.13;;;17.52;97.99
51759;BME280;66684;47.568;18.734;2023-06-14T07:11:01;99320.53;;;17.74;93.49
51759;BME280;66684;47.568;18.734;2023-06-14T07:13:28;99311.16;;;18.04;92.50
51759;BME280;66684;47.568;18.734;2023-06-14T07:15:54;99293.94;;;18.49;90.02
51759;BME280;66684;47.568;18.734;2023-06-14T07:18:21;99308.69;;;18.38;88.67
51759;BME280;66684;47.568;18.734;2023-06-14T07:20:47;99317.44;;;18.46;88.02
51759;BME280;66684;47.568;18.734;2023-06-14T07:23:13;99314.91;;;18.64;88.46
51759;BME280;66684;47.568;18.734;2023-06-14T07:25:39;99320.94;;;18.45;87.52
51759;BME280;66684;47.568;18.734;2023-06-14T07:28:05;99322.69;;;18.43;85.82
51759;BME280;66684;47.568;18.734;2023-06-14T07:30:31;99317.53;;;18.63;85.89
51759;BME280;66684;47.568;18.734;2023-06-14T07:32:57;99321.09;;;18.83;86.97
51759;BME280;66684;47.568;18.734;2023-06-14T07:35:23;99314.16;;;18.86;85.70
51759;BME280;66684;47.568;18.734;2023-06-14T07:37:49;99320.25;;;18.90;86.15
51759;BME280;66684;47.568;18.734;2023-06-14T07:40:15;99322.00;;;18.88;87.28
51759;BME280;66684;47.568;18.734;2023-06-14T07:42:41;99323.72;;;18.80;82.66
51759;BME280;66684;47.568;18.734;2023-06-14T07:45:07;99329.87;;;18.96;80.83
51759;BME280;66684;47.568;18.734;2023-06-14T07:47:34;99330.69;;;18.75;84.54
51759;BME280;66684;47.568;18.734;2023-06-14T07:50:00;99332.44;;;18.74;84.71
51759;BME280;66684;47.568;18.734;2023-06-14T07:52:26;99323.72;;;18.75;85.41
51759;BME280;66684;47.568;18.734;2023-06-14T07:54:51;99329.72;;;18.65;84.55
51759;BME280;66684;47.568;18.734;2023-06-14T07:57:17;99330.56;;;18.52;84.72
51759;BME280;66684;47.568;18.734;2023-06-14T07:59:46;99334.91;;;18.53;83.36
51759;BME280;66684;47.568;18.734;2023-06-14T08:02:12;99347.13;;;18.52;84.41
51759;BME280;66684;47.568;18.734;2023-06-14T08:04:38;99343.69;;;18.61;85.21
51759;BME280;66684;47.568;18.734;2023-06-14T08:07:04;99338.50;;;18.70;83.31
51759;BME280;66684;47.568;18.734;2023-06-14T08:09:31;99335.94;;;18.92;82.22
51759;BME280;66684;47.568;18.734;2023-06-14T08:11:57;99338.59;;;18.98;78.85
51759;BME280;66684;47.568;18.734;2023-06-14T08:14:23;99340.38;;;19.06;78.48
51759;BME280;66684;47.568;18.734;2023-06-14T08:16:49;99347.38;;;19.12;78.51
51759;BME280;66684;47.568;18.734;2023-06-14T08:19:15;99340.38;;;19.14;73.50
51759;BME280;66684;47.568;18.734;2023-06-14T08:21:42;99356.13;;;19.32;75.56
51759;BME280;66684;47.568;18.734;2023-06-14T08:24:11;99354.38;;;19.40;78.29
51759;BME280;66684;47.568;18.734;2023-06-14T08:26:38;99350.03;;;19.49;76.79
51759;BME280;66684;47.568;18.734;2023-06-14T08:29:05;99359.63;;;19.40;78.98
51759;BME280;66684;47.568;18.734;2023-06-14T08:31:33;99353.50;;;19.35;79.14
51759;BME280;66684;47.568;18.734;2023-06-14T08:33:59;99358.78;;;19.49;79.33
51759;BME280;66684;47.568;18.734;2023-06-14T08:36:25;99364.00;;;19.43;80.27
51759;BME280;66684;47.568;18.734;2023-06-14T08:38:50;99355.28;;;19.56;79.85
51759;BME280;66684;47.568;18.734;2023-06-14T08:41:21;99358.78;;;19.57;78.42
51759;BME280;66684;47.568;18.734;2023-06-14T08:43:51;99360.47;;;19.29;78.21
51759;BME280;66684;47.568;18.734;2023-06-14T08:46:17;99364.88;;;19.37;78.30
51759;BME280;66684;47.568;18.734;2023-06-14T08:48:52;99371.84;;;19.41;78.55
51759;BME280;66684;47.568;18.734;2023-06-14T08:51:18;99380.59;;;19.40;79.93
51759;BME280;66684;47.568;18.734;2023-06-14T08:53:45;99374.50;;;19.49;78.60
51759;BME280;66684;47.568;18.734;2023-06-14T08:56:12;99383.22;;;19.57;81.13
51759;BME280;66684;47.568;18.734;2023-06-14T08:58:44;99387.53;;;19.29;81.79
51759;BME280;66684;47.568;18.734;2023-06-14T09:01:13;99384.94;;;19.35;78.54
51759;BME280;66684;47.568;18.734;2023-06-14T09:03:42;99383.22;;;19.37;78.21
51759;BME280;66684;47.568;18.734;2023-06-14T09:06:09;99380.59;;;19.54;78.80
51759;BME280;66684;47.568;18.734;2023-06-14T09:08:46;99385.91;;;19.82;78.30
51759;BME280;66684;47.568;18.734;2023-06-14T09:11:16;99380.62;;;19.85;82.54
51759;BME280;66684;47.568;18.734;2023-06-14T09:13:45;99379.75;;;19.98;78.03
51759;BME280;66684;47.568;18.734;2023-06-14T09:16:12;99375.34;;;20.31;77.01
51759;BME280;66684;47.568;18.734;2023-06-14T09:18:39;99379.69;;;20.52;76.54
51759;BME280;66684;47.568;18.734;2023-06-14T09:21:07;99378.78;;;20.59;74.28
51759;BME280;66684;47.568;18.734;2023-06-14T09:23:39;99382.28;;;20.55;74.20
51759;BME280;66684;47.568;18.734;2023-06-14T09:26:10;99384.00;;;20.71;74.45
51759;BME280;66684;47.568;18.734;2023-06-14T09:28:41;99382.84;;;21.22;71.87
51759;BME280;66684;47.568;18.734;2023-06-14T09:31:08;99374.94;;;21.33;70.33
51759;BME280;66684;47.568;18.734;2023-06-14T09:33:35;99383.72;;;21.29;68.90
51759;BME280;66684;47.568;18.734;2023-06-14T09:36:01;99375.19;;;20.84;66.50
51759;BME280;66684;47.568;18.734;2023-06-14T09:38:27;99373.31;;;21.05;69.68
51759;BME280;66684;47.568;18.734;2023-06-14T09:40:57;99373.19;;;21.32;66.78
51759;BME280;66684;47.568;18.734;2023-06-14T09:43:23;99372.41;;;21.15;64.13
51759;BME280;66684;47.568;18.734;2023-06-14T09:45:50;99376.72;;;21.25;66.09
51759;BME280;66684;47.568;18.734;2023-06-14T09:48:16;99374.06;;;21.30;64.87
51759;BME280;66684;47.568;18.734;2023-06-14T09:50:46;99375.81;;;21.34;66.63
51759;BME280;66684;47.568;18.734;2023-06-14T09:53:14;99369.94;;;20.80;68.28
51759;BME280;66684;47.568;18.734;2023-06-14T09:55:41;99370.03;;;20.60;66.11
51759;BME280;66684;47.568;18.734;2023-06-14T09:58:08;99364.66;;;20.93;67.09
51759;BME280;66684;47.568;18.734;2023-06-14T10:00:36;99361.13;;;20.94;65.12
51759;BME280;66684;47.568;18.734;2023-06-14T10:03:12;99361.22;;;20.76;68.00
51759;BME280;66684;47.568;18.734;2023-06-14T10:05:39;99353.34;;;20.74;65.80
51759;BME280;66684;47.568;18.734;2023-06-14T10:08:14;99352.53;;;20.59;64.13
51759;BME280;66684;47.568;18.734;2023-06-14T10:10:42;99356.06;;;20.52;65.49
51759;BME280;66684;47.568;18.734;2023-06-14T10:13:09;99350.84;;;20.33;64.04
51759;BME280;66684;47.568;18.734;2023-06-14T10:18:43;99354.31;;;20.35;70.65
51759;BME280;66684;47.568;18.734;2023-06-14T10:21:46;99363.06;;;20.40;70.82
51759;BME280;66684;47.568;18.734;2023-06-14T10:24:17;99363.78;;;20.90;68.09
51759;BME280;66684;47.568;18.734;2023-06-14T10:26:55;99368.22;;;20.76;65.67
51759;BME280;66684;47.568;18.734;2023-06-14T10:29:22;99360.34;;;20.71;67.24
51759;BME280;66684;47.568;18.734;2023-06-14T10:31:50;99363.94;;;20.47;67.88
51759;BME280;66684;47.568;18.734;2023-06-14T10:34:27;99363.09;;;20.28;69.27
51759;BME280;66684;47.568;18.734;2023-06-14T10:37:07;99361.37;;;20.13;70.46
51759;BME280;66684;47.568;18.734;2023-06-14T10:39:41;99367.50;;;20.08;68.81
51759;BME280;66684;47.568;18.734;2023-06-14T10:42:08;99362.28;;;20.00;70.56
51759;BME280;66684;47.568;18.734;2023-06-14T10:44:38;99358.75;;;20.24;71.97
51759;BME280;66684;47.568;18.734;2023-06-14T10:47:10;99353.44;;;20.47;68.26
51759;BME280;66684;47.568;18.734;2023-06-14T10:49:37;99360.37;;;20.65;68.88
51759;BME280;66684;47.568;18.734;2023-06-14T10:52:09;99362.00;;;20.90;68.08
51759;BME280;66684;47.568;18.734;2023-06-14T10:55:02;99361.19;;;20.79;69.15
51759;BME280;66684;47.568;18.734;2023-06-14T10:57:30;99354.16;;;20.87;68.72
51759;BME280;66684;47.568;18.734;2023-06-14T11:00:00;99353.94;;;21.24;63.85
51759;BME280;66684;47.568;18.734;2023-06-14T11:05:29;99345.47;;;20.76;59.43
51759;BME280;66684;47.568;18.734;2023-06-14T11:10:40;99343.81;;;21.90;56.65
51759;BME280;66684;47.568;18.734;2023-06-14T11:13:07;99342.25;;;21.68;56.37
51759;BME280;66684;47.568;18.734;2023-06-14T11:15:38;99341.59;;;22.38;58.03
51759;BME280;66684;47.568;18.734;2023-06-14T11:18:08;99339.28;;;22.04;56.59
51759;BME280;66684;47.568;18.734;2023-06-14T11:20:37;99344.03;;;22.53;55.05
51759;BME280;66684;47.568;18.734;2023-06-14T11:23:03;99344.50;;;22.14;55.36
51759;BME280;66684;47.568;18.734;2023-06-14T11:25:30;99336.69;;;22.00;54.79
51759;BME280;66684;47.568;18.734;2023-06-14T11:27:57;99335.66;;;22.19;52.61
51759;BME280;66684;47.568;18.734;2023-06-14T11:30:23;99338.47;;;21.98;54.31
51759;BME280;66684;47.568;18.734;2023-06-14T11:32:52;99345.28;;;21.10;55.91
51759;BME280;66684;47.568;18.734;2023-06-14T11:35:21;99333.13;;;20.89;57.44
51759;BME280;66684;47.568;18.734;2023-06-14T11:37:52;99325.00;;;21.33;57.05
51759;BME280;66684;47.568;18.734;2023-06-14T11:40:18;99341.19;;;21.87;54.48
51759;BME280;66684;47.568;18.734;2023-06-14T11:42:44;99325.13;;;22.19;51.39
51759;BME280;66684;47.568;18.734;2023-06-14T11:45:11;99321.41;;;21.42;49.19
51759;BME280;66684;47.568;18.734;2023-06-14T11:47:39;99327.88;;;22.04;50.36
51759;BME280;66684;47.568;18.734;2023-06-14T11:50:07;99322.13;;;22.51;46.28
51759;BME280;66684;47.568;18.734;2023-06-14T11:52:36;99334.06;;;22.01;50.96
51759;BME280;66684;47.568;18.734;2023-06-14T11:55:03;99326.06;;;22.12;51.81
51759;BME280;66684;47.568;18.734;2023-06-14T11:57:35;99319.78;;;22.24;47.39
51759;BME280;66684;47.568;18.734;2023-06-14T12:00:06;99328.09;;;21.81;50.36
51759;BME280;66684;47.568;18.734;2023-06-14T12:02:38;99325.34;;;21.96;50.30
51759;BME280;66684;47.568;18.734;2023-06-14T12:05:07;99318.22;;;22.04;49.69
51759;BME280;66684;47.568;18.734;2023-06-14T12:07:37;99327.84;;;22.13;50.01
51759;BME280;66684;47.568;18.734;2023-06-14T12:10:04;99317.97;;;23.00;48.15
51759;BME280;66684;47.568;18.734;2023-06-14T12:12:38;99311.94;;;22.93;47.84
51759;BME280;66684;47.568;18.734;2023-06-14T12:15:05;99315.53;;;22.89;48.63
51759;BME280;66684;47.568;18.734;2023-06-14T12:17:35;99318.22;;;22.80;49.26
51759;BME280;66684;47.568;18.734;2023-06-14T12:20:09;99328.53;;;23.01;50.04
51759;BME280;66684;47.568;18.734;2023-06-14T12:22:58;99330.13;;;23.11;47.49
51759;BME280;66684;47.568;18.734;2023-06-14T12:25:34;99334.66;;;23.00;49.98
51759;BME280;66684;47.568;18.734;2023-06-14T12:28:06;99338.56;;;22.70;49.55
51759;BME280;66684;47.568;18.734;2023-06-14T12:30:33;99332.28;;;22.80;49.94
51759;BME280;66684;47.568;18.734;2023-06-14T12:33:01;99331.25;;;22.95;46.72
51759;BME280;66684;47.568;18.734;2023-06-14T12:35:28;99327.56;;;23.05;47.68
51759;BME280;66684;47.568;18.734;2023-06-14T12:37:53;99331.69;;;22.58;46.76
51759;BME280;66684;47.568;18.734;2023-06-14T12:40:19;99327.94;;;22.75;44.83
51759;BME280;66684;47.568;18.734;2023-06-14T12:42:45;99332.94;;;22.27;46.92
51759;BME280;66684;47.568;18.734;2023-06-14T12:45:14;99333.13;;;22.07;46.58
51759;BME280;66684;47.568;18.734;2023-06-14T12:47:41;99329.31;;;22.35;45.05
51759;BME280;66684;47.568;18.734;2023-06-14T12:50:07;99327.97;;;21.95;47.54
51759;BME280;66684;47.568;18.734;2023-06-14T12:52:33;99325.50;;;21.78;49.49
51759;BME280;66684;47.568;18.734;2023-06-14T12:55:05;99328.72;;;22.07;48.38
51759;BME280;66684;47.568;18.734;2023-06-14T12:57:31;99323.97;;;22.45;47.93
51759;BME280;66684;47.568;18.734;2023-06-14T12:59:57;99333.69;;;22.38;49.84